Terminal Aerodrome Forecast
Issued by NWS Atlanta, GA

Home | Current Version | Previous Version | Text Only | Print | Product List | Glossary On
Versions: 1 2 3 4 5 6 7 8 9 10 11 12 13 14 15 16 17 18 19 20 21 22 23 24 25 26 27 28 29 30 31 32 33 34 35 36 37 38 39 40 41 42 43 44
517
FTUS42 KFFC 241345 AAA
TAFATL
TAF AMD
KATL 241345Z 2414/2518 19007KT P6SM VCSH BKN012
     FM241700 20008KT 6SM SHRA OVC025
      TEMPO 2417/2420 VRB15G25KT 4SM TSRA SCT010 BKN030CB
     FM242000 24011KT P6SM BKN050
     FM250200 28007KT P6SM BKN070
     FM250800 28008KT P6SM BKN015
     FM251600 27012G22KT P6SM BKN030=

USA.gov is the U.S. government's official web portal to all federal, state and local government web resources and services.